Time;durP1;ratioP1;P1;durP2;ratioP2;P2;SDS_P1;SDS_P2;PMS_P1;PMS_P2;Temp;Humidity;BMP_temperature;BMP_pressure;BME280_temperature;BME280_humidity;BME280_pressure;Samples;Min_cycle;Max_cycle;Signal;HPM_P1;HPM_P2
2021/10/30 00:00:30;;;;;;;12.65;3.10;;;;;;;-149.78;100.00;50494.91;4976700;28;20034;-61
2021/10/30 00:02:56;;;;;;;13.10;2.92;;;;;;;-149.78;100.00;50510.56;4976730;28;20051;-61
2021/10/30 00:05:21;;;;;;;11.55;3.50;;;;;;;-149.78;100.00;50498.81;4976439;28;20039;-61
2021/10/30 00:07:47;;;;;;;13.00;3.83;;;;;;;-149.78;100.00;50510.56;4975014;28;20162;-61
2021/10/30 00:10:15;;;;;;;14.00;3.55;;;;;;;-149.78;100.00;50487.09;4977137;28;20045;-61
2021/10/30 00:12:41;;;;;;;14.95;3.88;;;;;;;-149.78;100.00;50475.34;4976183;28;20058;-61
2021/10/30 00:15:08;;;;;;;16.70;3.60;;;;;;;-149.78;100.00;50491.00;4970348;28;20452;-61
2021/10/30 00:17:34;;;;;;;11.80;3.63;;;;;;;-149.78;100.00;50498.81;4970032;28;20049;-61
2021/10/30 00:19:59;;;;;;;8.02;2.83;;;;;;;-149.78;100.00;50483.19;4974728;28;20035;-61
2021/10/30 00:22:29;;;;;;;15.88;2.92;;;;;;;-149.78;100.00;50498.81;4974733;28;20047;-65
2021/10/30 00:24:55;;;;;;;4.47;2.20;;;;;;;-149.78;100.00;50510.56;4976307;28;20121;-65
2021/10/30 00:27:21;;;;;;;7.72;2.70;;;;;;;-149.78;100.00;50518.38;4976343;28;20043;-65
2021/10/30 00:29:46;;;;;;;13.07;2.95;;;;;;;-149.78;100.00;50526.22;4973766;28;20046;-65
2021/10/30 00:32:12;;;;;;;12.75;3.30;;;;;;;-149.78;100.00;50514.47;4975723;28;20046;-65
2021/10/30 00:34:38;;;;;;;16.05;2.72;;;;;;;-149.78;100.00;50530.13;4975276;28;20035;-65
2021/10/30 00:37:04;;;;;;;11.02;3.35;;;;;;;-149.78;100.00;50518.38;4974439;28;20394;-65
2021/10/30 00:39:30;;;;;;;10.63;2.65;;;;;;;-149.78;100.00;50491.00;4974241;28;20053;-65
2021/10/30 00:41:56;;;;;;;13.15;3.10;;;;;;;-149.78;100.00;50494.91;4975829;28;20054;-65
2021/10/30 00:44:22;;;;;;;18.23;3.33;;;;;;;-149.78;100.00;50510.56;4975612;28;20053;-65
2021/10/30 00:46:50;;;;;;;9.68;2.75;;;;;;;-149.78;100.00;50512.50;4974080;28;20161;-65
2021/10/30 00:49:18;;;;;;;11.02;3.03;;;;;;;-149.78;100.00;50496.88;4972113;28;20058;-65
2021/10/30 00:51:47;;;;;;;6.28;2.50;;;;;;;-149.78;100.00;50485.13;4973688;28;20050;-65
2021/10/30 00:54:14;;;;;;;8.45;2.83;;;;;;;-149.78;100.00;50510.56;4966642;28;20031;-65
2021/10/30 00:56:44;;;;;;;8.90;2.90;;;;;;;-149.78;100.00;50459.72;4971639;28;20073;-65
2021/10/30 00:59:15;;;;;;;11.48;3.03;;;;;;;-149.78;100.00;50510.56;4969719;28;20034;-65
2021/10/30 01:01:44;;;;;;;16.73;3.28;;;;;;;-149.78;100.00;50491.00;4974973;28;20041;-65
2021/10/30 01:04:10;;;;;;;16.33;3.08;;;;;;;-149.78;100.00;50487.09;4972399;28;20033;-65
2021/10/30 01:06:38;;;;;;;17.00;3.05;;;;;;;-149.78;100.00;50479.28;4971667;28;20118;-65
2021/10/30 01:09:05;;;;;;;14.95;3.45;;;;;;;-149.78;100.00;50475.34;4973920;28;20117;-65
2021/10/30 01:11:30;;;;;;;14.93;2.80;;;;;;;-149.78;100.00;50469.50;4971721;28;20481;-66
2021/10/30 01:13:56;;;;;;;10.10;3.03;;;;;;;-149.78;100.00;50487.09;4975643;28;20051;-65
2021/10/30 01:16:22;;;;;;;13.05;3.45;;;;;;;-149.78;100.00;50471.44;4974604;28;20034;-65
2021/10/30 01:18:48;;;;;;;15.00;3.15;;;;;;;-149.78;100.00;50498.81;4973750;28;20035;-65
2021/10/30 01:21:23;;;;;;;16.85;2.75;;;;;;;-149.78;100.00;50510.56;4971303;28;20035;-65
2021/10/30 01:23:49;;;;;;;14.07;2.88;;;;;;;-149.78;100.00;50483.19;4974035;28;20437;-65
2021/10/30 01:26:15;;;;;;;10.77;2.80;;;;;;;-149.78;100.00;50479.28;4976095;28;20113;-66
2021/10/30 01:28:41;;;;;;;10.80;2.72;;;;;;;-149.78;100.00;50498.81;4971426;28;20430;-65
2021/10/30 01:31:07;;;;;;;13.35;2.55;;;;;;;-149.78;100.00;50491.00;4975812;28;20062;-65
2021/10/30 01:33:33;;;;;;;18.98;3.20;;;;;;;-149.78;100.00;50463.63;4978183;28;20042;-65
2021/10/30 01:36:07;;;;;;;7.07;2.60;;;;;;;-149.78;100.00;50461.66;4975509;28;20097;-65
2021/10/30 01:38:33;;;;;;;13.00;3.00;;;;;;;-149.78;100.00;50500.78;4970027;28;20031;-65
2021/10/30 01:40:58;;;;;;;11.98;2.90;;;;;;;-149.78;100.00;50494.91;4968491;28;20027;-65
2021/10/30 01:43:24;;;;;;;9.65;2.45;;;;;;;-149.78;100.00;50483.19;4969788;28;20031;-65
2021/10/30 01:45:49;;;;;;;9.30;2.90;;;;;;;-149.78;100.00;50463.63;4971695;28;20043;-65
2021/10/30 01:48:16;;;;;;;14.98;3.40;;;;;;;-149.78;100.00;50530.13;4971761;28;20043;-65
2021/10/30 01:50:42;;;;;;;7.78;2.90;;;;;;;-149.78;100.00;50491.00;4973519;28;20041;-65
2021/10/30 01:53:09;;;;;;;16.25;3.13;;;;;;;-149.78;100.00;50498.81;4970225;28;20038;-65
2021/10/30 01:55:37;;;;;;;14.30;3.55;;;;;;;-149.78;100.00;50467.53;4973739;28;20374;-65
2021/10/30 01:58:04;;;;;;;12.65;3.03;;;;;;;-149.78;100.00;50498.81;4972023;28;20054;-65
2021/10/30 02:00:30;;;;;;;8.65;2.60;;;;;;;-149.78;100.00;50479.28;4967175;28;20041;-65
2021/10/30 02:02:56;;;;;;;21.10;3.65;;;;;;;-149.78;100.00;50471.44;4975170;28;20129;-65
2021/10/30 02:05:22;;;;;;;16.25;3.17;;;;;;;-149.78;100.00;50475.34;4973673;28;20155;-65
2021/10/30 02:07:48;;;;;;;18.58;2.97;;;;;;;-149.78;100.00;50475.34;4972722;28;20045;-65
2021/10/30 02:10:15;;;;;;;16.88;4.07;;;;;;;-149.78;100.00;50479.28;4972352;28;20042;-65
2021/10/30 02:12:43;;;;;;;14.88;3.15;;;;;;;-149.78;100.00;50485.13;4973563;28;20078;-66
2021/10/30 02:15:09;;;;;;;15.13;3.10;;;;;;;-149.78;100.00;50483.19;4973621;28;20050;-65
2021/10/30 02:17:35;;;;;;;13.57;3.08;;;;;;;-149.78;100.00;50502.75;4973941;28;20055;-65
2021/10/30 02:20:03;;;;;;;13.32;2.75;;;;;;;-149.78;100.00;50498.81;4974014;28;20403;-65
2021/10/30 02:22:29;;;;;;;12.27;2.90;;;;;;;-149.78;100.00;50526.22;4974306;28;20384;-65
2021/10/30 02:24:54;;;;;;;26.48;3.53;;;;;;;-149.78;100.00;50483.19;4974296;28;20043;-65
2021/10/30 02:27:20;;;;;;;13.05;3.00;;;;;;;-149.78;100.00;50453.84;4969702;28;20035;-65
2021/10/30 02:29:46;;;;;;;11.82;3.05;;;;;;;-149.78;100.00;50487.09;4974605;28;20097;-65
2021/10/30 02:32:12;;;;;;;13.05;3.13;;;;;;;-149.78;100.00;50455.81;4966470;28;20475;-65
2021/10/30 02:34:39;;;;;;;12.10;3.03;;;;;;;-149.78;100.00;50491.00;4972124;28;20047;-65
2021/10/30 02:37:06;;;;;;;12.68;2.67;;;;;;;-149.78;100.00;50481.22;4971245;28;20026;-65
2021/10/30 02:39:32;;;;;;;15.55;3.05;;;;;;;-149.78;100.00;50479.28;4965889;28;20047;-65
2021/10/30 02:41:57;;;;;;;15.00;2.88;;;;;;;-149.78;100.00;50465.56;4971286;28;20041;-65
2021/10/30 02:44:23;;;;;;;16.85;3.63;;;;;;;-149.78;100.00;50504.69;4971381;28;20083;-65
2021/10/30 02:46:48;;;;;;;11.60;3.10;;;;;;;-149.78;100.00;50483.19;4970771;28;20042;-65
2021/10/30 02:49:14;;;;;;;15.57;3.30;;;;;;;-149.78;100.00;50530.13;4974286;28;20169;-65
2021/10/30 02:51:40;;;;;;;15.60;3.15;;;;;;;-149.78;100.00;50528.16;4972969;28;20031;-65
2021/10/30 02:54:05;;;;;;;10.57;3.25;;;;;;;-149.78;100.00;50506.66;4973134;28;20039;-65
2021/10/30 02:56:31;;;;;;;12.73;3.58;;;;;;;-149.78;100.00;50494.91;4971086;28;20054;-65
2021/10/30 02:58:56;;;;;;;8.70;2.83;;;;;;;-149.78;100.00;50477.31;4967261;28;20039;-65
2021/10/30 03:01:22;;;;;;;12.98;3.22;;;;;;;-149.78;100.00;50506.66;4971394;28;20034;-65
2021/10/30 03:03:47;;;;;;;22.48;3.67;;;;;;;-149.78;100.00;50483.19;4972191;28;20074;-65
2021/10/30 03:06:15;;;;;;;25.80;3.80;;;;;;;-149.78;100.00;50514.47;4973588;28;20097;-65
2021/10/30 03:08:42;;;;;;;11.68;2.88;;;;;;;-149.78;100.00;50494.91;4973089;28;20102;-65
2021/10/30 03:11:07;;;;;;;16.40;3.10;;;;;;;-149.78;100.00;50463.63;4972765;28;20554;-65
2021/10/30 03:13:33;;;;;;;19.48;3.78;;;;;;;-149.78;100.00;50502.75;4971718;28;20136;-66
2021/10/30 03:15:59;;;;;;;13.80;3.28;;;;;;;-149.78;100.00;50475.34;4973111;28;20125;-65
2021/10/30 03:18:25;;;;;;;15.00;3.78;;;;;;;-149.78;100.00;50491.00;4971868;28;20039;-65
2021/10/30 03:20:51;;;;;;;14.98;3.35;;;;;;;-149.78;100.00;50491.00;4971923;28;20046;-65
2021/10/30 03:23:17;;;;;;;13.77;3.13;;;;;;;-149.78;100.00;50479.28;4971803;28;20035;-65
2021/10/30 03:25:43;;;;;;;12.85;3.05;;;;;;;-149.78;100.00;50479.28;4973406;28;20042;-65
2021/10/30 03:28:08;;;;;;;16.88;3.53;;;;;;;-149.78;100.00;50479.28;4975948;28;20090;-65
2021/10/30 03:30:36;;;;;;;15.77;3.15;;;;;;;-149.78;100.00;50455.81;4977900;28;20045;-65
2021/10/30 03:33:02;;;;;;;13.20;3.25;;;;;;;-149.78;100.00;50451.88;4976558;28;20130;-65
2021/10/30 03:35:27;;;;;;;13.88;3.72;;;;;;;-149.78;100.00;50506.66;4976488;28;20110;-65
2021/10/30 03:37:53;;;;;;;11.85;3.85;;;;;;;-149.78;100.00;50491.00;4976874;28;20031;-66
2021/10/30 03:40:18;;;;;;;12.75;2.92;;;;;;;-149.78;100.00;50475.34;4970102;28;20026;-65
2021/10/30 03:42:44;;;;;;;16.40;3.45;;;;;;;-149.78;100.00;50504.69;4977330;28;20043;-65
2021/10/30 03:45:10;;;;;;;13.10;3.03;;;;;;;-149.78;100.00;50473.41;4971447;28;20509;-65
2021/10/30 03:47:35;;;;;;;12.25;3.20;;;;;;;-149.78;100.00;50469.50;4974437;28;20065;-65
2021/10/30 03:50:03;;;;;;;13.02;3.35;;;;;;;-149.78;100.00;50471.44;4978577;28;20027;-65
2021/10/30 03:52:29;;;;;;;14.20;3.53;;;;;;;-149.78;100.00;50516.44;4976754;28;20034;-65
2021/10/30 03:54:55;;;;;;;7.95;2.85;;;;;;;-149.78;100.00;50475.34;4968576;28;20038;-65
2021/10/30 03:57:21;;;;;;;11.57;3.03;;;;;;;-149.78;100.00;50469.50;4967766;28;20035;-64
2021/10/30 03:59:47;;;;;;;12.32;2.92;;;;;;;-149.78;100.00;50498.81;4968955;28;20039;-64
2021/10/30 04:02:14;;;;;;;16.73;2.95;;;;;;;-149.78;100.00;50477.31;4975759;28;20045;-65
2021/10/30 04:04:39;;;;;;;16.77;4.90;;;;;;;-149.78;100.00;50467.53;4976196;28;20039;-66
2021/10/30 04:07:05;;;;;;;19.63;3.58;;;;;;;-149.78;100.00;50467.53;4972414;28;20045;-65
2021/10/30 04:09:30;;;;;;;12.80;3.10;;;;;;;-149.78;100.00;50483.19;4969166;28;20153;-64
2021/10/30 04:11:56;;;;;;;10.35;2.63;;;;;;;-149.78;100.00;50492.97;4976164;28;20042;-64
2021/10/30 04:14:22;;;;;;;10.88;2.95;;;;;;;-149.78;100.00;50467.53;4975748;28;20089;-64
2021/10/30 04:16:48;;;;;;;9.85;3.08;;;;;;;-149.78;100.00;50514.47;4976745;28;20034;-64
2021/10/30 04:19:15;;;;;;;13.52;3.13;;;;;;;-149.78;100.00;50502.75;4969171;28;20109;-64
2021/10/30 04:21:41;;;;;;;17.67;3.80;;;;;;;-149.78;100.00;50461.66;4970265;28;20070;-65
2021/10/30 04:24:08;;;;;;;10.40;2.55;;;;;;;-149.78;100.00;50479.28;4973589;28;20031;-64
2021/10/30 04:26:34;;;;;;;10.95;3.35;;;;;;;-149.78;100.00;50471.44;4970807;28;20497;-64
2021/10/30 04:29:00;;;;;;;10.00;3.03;;;;;;;-149.78;100.00;50455.81;4968435;28;20091;-64
2021/10/30 04:31:28;;;;;;;10.10;2.92;;;;;;;-149.78;100.00;50467.53;4972622;28;20466;-64
2021/10/30 04:33:58;;;;;;;13.88;2.65;;;;;;;-149.78;100.00;50491.00;4974533;28;20094;-65
2021/10/30 04:36:27;;;;;;;11.50;3.65;;;;;;;-149.78;100.00;50492.97;4971970;28;20113;-64
2021/10/30 04:38:53;;;;;;;17.63;3.58;;;;;;;-149.78;100.00;50510.56;4976296;28;20034;-64
2021/10/30 04:41:18;;;;;;;5.85;2.80;;;;;;;-149.78;100.00;50467.53;4975966;28;20026;-64
2021/10/30 04:43:45;;;;;;;19.35;3.40;;;;;;;-149.78;100.00;50459.72;4975721;28;20517;-64
2021/10/30 04:46:14;;;;;;;11.57;3.42;;;;;;;-149.78;100.00;50465.56;4976221;28;20054;-64
2021/10/30 04:48:40;;;;;;;8.35;3.10;;;;;;;-149.78;100.00;50494.91;4974978;28;20070;-64
2021/10/30 04:51:06;;;;;;;12.88;3.33;;;;;;;-149.78;100.00;50471.44;4971827;28;20535;-64
2021/10/30 04:53:38;;;;;;;21.42;2.90;;;;;;;-149.78;100.00;50459.72;4971099;28;20117;-64
2021/10/30 04:56:04;;;;;;;10.07;3.80;;;;;;;-149.78;100.00;50487.09;4973672;28;20094;-64
2021/10/30 04:58:30;;;;;;;12.75;3.15;;;;;;;-149.78;100.00;50487.09;4974927;28;20035;-64
2021/10/30 05:00:56;;;;;;;8.30;3.40;;;;;;;-149.78;100.00;50498.81;4969710;28;20490;-64
2021/10/30 05:03:22;;;;;;;13.27;2.75;;;;;;;-149.78;100.00;50496.88;4974856;28;20058;-64
2021/10/30 05:05:48;;;;;;;16.35;2.78;;;;;;;-149.78;100.00;50506.66;4975185;28;20585;-64
2021/10/30 05:08:14;;;;;;;10.88;2.40;;;;;;;-149.78;100.00;50498.81;4975765;28;20031;-64
2021/10/30 05:10:39;;;;;;;10.13;2.60;;;;;;;-149.78;100.00;50502.75;4976042;28;20046;-64
2021/10/30 05:13:05;;;;;;;9.07;2.53;;;;;;;-149.78;100.00;50491.00;4972967;28;20118;-64
2021/10/30 05:15:32;;;;;;;16.88;2.85;;;;;;;-149.78;100.00;50451.88;4976072;28;20039;-64
2021/10/30 05:17:59;;;;;;;17.42;3.53;;;;;;;-149.78;100.00;50479.28;4973893;28;20070;-64
2021/10/30 05:20:27;;;;;;;16.55;3.05;;;;;;;-149.78;100.00;50444.06;4974663;28;20039;-64
2021/10/30 05:22:53;;;;;;;10.93;3.25;;;;;;;-149.78;100.00;50440.16;4975610;28;20045;-64
2021/10/30 05:25:19;;;;;;;11.18;2.65;;;;;;;-149.78;100.00;50459.72;4972554;28;20463;-64
2021/10/30 05:27:45;;;;;;;17.17;3.50;;;;;;;-149.78;100.00;50461.66;4974705;28;20077;-64
2021/10/30 05:30:10;;;;;;;17.77;3.22;;;;;;;-149.78;100.00;50506.66;4975555;28;20039;-64
2021/10/30 05:32:36;;;;;;;14.55;4.40;;;;;;;-149.78;100.00;50479.28;4972002;28;20043;-65
2021/10/30 05:35:03;;;;;;;16.30;3.20;;;;;;;-149.78;100.00;50477.31;4971481;28;20043;-66
2021/10/30 05:37:28;;;;;;;10.07;3.88;;;;;;;-149.78;100.00;50498.81;4970525;28;20121;-65
2021/10/30 05:39:54;;;;;;;12.93;2.38;;;;;;;-149.78;100.00;50500.78;4975235;28;20122;-65
2021/10/30 05:42:20;;;;;;;17.15;2.70;;;;;;;-149.78;100.00;50487.09;4976196;28;20042;-65
2021/10/30 05:44:46;;;;;;;14.88;4.00;;;;;;;-149.78;100.00;50475.34;4971492;28;20039;-65
2021/10/30 05:47:12;;;;;;;23.05;3.08;;;;;;;-149.78;100.00;50479.28;4974720;28;20121;-65
2021/10/30 05:49:40;;;;;;;8.85;2.78;;;;;;;-149.78;100.00;50496.88;4972058;28;20031;-66
2021/10/30 05:52:07;;;;;;;9.02;2.33;;;;;;;-149.78;100.00;50461.66;4967140;28;20038;-60
2021/10/30 05:54:33;;;;;;;14.68;2.60;;;;;;;-149.78;100.00;50473.41;4968957;28;20439;-60
2021/10/30 05:56:59;;;;;;;8.02;2.75;;;;;;;-149.78;100.00;50459.72;4973953;28;20031;-60
2021/10/30 05:59:28;;;;;;;9.02;3.03;;;;;;;-149.78;100.00;50479.28;4969635;28;20035;-60
2021/10/30 06:01:54;;;;;;;15.73;3.10;;;;;;;-149.78;100.00;50485.13;4967305;28;20125;-60
2021/10/30 06:04:20;;;;;;;14.40;3.17;;;;;;;-149.78;100.00;50483.19;4974734;28;20037;-60
2021/10/30 06:06:46;;;;;;;15.93;3.00;;;;;;;-149.78;100.00;50455.81;4974780;28;20034;-60
2021/10/30 06:09:12;;;;;;;10.75;2.80;;;;;;;-149.78;100.00;50494.91;4971901;28;20471;-60
2021/10/30 06:11:38;;;;;;;9.48;2.80;;;;;;;-149.78;100.00;50471.44;4967147;28;20125;-60
2021/10/30 06:14:06;;;;;;;15.15;2.97;;;;;;;-149.78;100.00;50444.06;4958859;28;20081;-60
2021/10/30 06:16:32;;;;;;;9.68;3.08;;;;;;;-149.78;100.00;50447.97;4964184;28;20414;-61
2021/10/30 06:18:58;;;;;;;7.00;2.97;;;;;;;-149.78;100.00;50487.09;4970181;28;20147;-61
2021/10/30 06:21:26;;;;;;;18.98;3.78;;;;;;;-149.78;100.00;50506.66;4961089;28;20130;-61
2021/10/30 06:23:54;;;;;;;10.07;2.55;;;;;;;-149.78;100.00;50463.63;4957580;28;20129;-60
2021/10/30 06:26:20;;;;;;;13.35;2.70;;;;;;;-149.78;100.00;50479.28;4956984;28;20114;-60
2021/10/30 06:28:47;;;;;;;9.07;3.28;;;;;;;-149.78;100.00;50467.53;4960060;28;20490;-61
2021/10/30 06:31:14;;;;;;;15.40;2.75;;;;;;;-149.78;100.00;50469.50;4960797;28;20035;-60
2021/10/30 06:33:41;;;;;;;13.52;2.72;;;;;;;-149.78;100.00;50461.66;4958235;28;20043;-61
2021/10/30 06:36:08;;;;;;;11.80;2.97;;;;;;;-149.78;100.00;50479.28;4962136;28;20110;-61
2021/10/30 06:38:34;;;;;;;9.13;2.90;;;;;;;-149.78;100.00;50447.97;4963427;28;20035;-64
2021/10/30 06:41:01;;;;;;;10.15;2.83;;;;;;;-149.78;100.00;50491.00;4959494;28;20058;-61
2021/10/30 06:43:31;;;;;;;9.82;2.90;;;;;;;-149.78;100.00;50463.63;4957475;28;20031;-61
2021/10/30 06:45:57;;;;;;;10.20;3.00;;;;;;;-149.78;100.00;50487.09;4963816;28;20033;-60
2021/10/30 06:48:24;;;;;;;16.38;3.20;;;;;;;-149.78;100.00;50498.81;4959873;28;20043;-62
2021/10/30 06:50:54;;;;;;;10.23;2.72;;;;;;;-149.78;100.00;50481.22;4961196;28;20066;-63
2021/10/30 06:53:20;;;;;;;14.00;3.25;;;;;;;-149.78;100.00;50463.63;4957855;28;20531;-62
2021/10/30 06:55:48;;;;;;;14.63;3.60;;;;;;;-149.78;100.00;50475.34;4955455;28;20036;-62
2021/10/30 06:58:16;;;;;;;16.77;4.03;;;;;;;-149.78;100.00;50465.56;4958937;28;20058;-63
2021/10/30 07:00:42;;;;;;;11.32;3.53;;;;;;;-149.78;100.00;50451.88;4961213;28;20470;-61
2021/10/30 07:03:08;;;;;;;8.18;2.92;;;;;;;-149.78;100.00;50455.81;4959634;28;20049;-61
2021/10/30 07:05:34;;;;;;;12.65;3.40;;;;;;;-149.78;100.00;50491.00;4955973;28;20039;-62
2021/10/30 07:08:00;;;;;;;13.43;3.30;;;;;;;-149.78;100.00;50475.34;4960825;28;20500;-61
2021/10/30 07:10:25;;;;;;;12.82;3.55;;;;;;;-149.78;100.00;50436.25;4957045;28;20043;-61
2021/10/30 07:12:51;;;;;;;13.57;3.60;;;;;;;-149.78;100.00;50471.44;4956949;28;20344;-60
2021/10/30 07:15:18;;;;;;;15.02;3.70;;;;;;;-149.78;100.00;50459.72;4956356;28;20030;-61
2021/10/30 07:17:44;;;;;;;11.35;3.40;;;;;;;-149.78;100.00;50463.63;4960364;28;20020;-61
2021/10/30 07:20:10;;;;;;;15.52;4.10;;;;;;;-149.78;100.00;50471.44;4957098;28;20387;-61
2021/10/30 07:22:47;;;;;;;16.15;3.92;;;;;;;-149.78;100.00;50471.44;4967837;28;20027;-62
2021/10/30 07:25:15;;;;;;;17.70;4.47;;;;;;;-149.78;100.00;50440.16;4959711;28;20034;-63
2021/10/30 07:27:41;;;;;;;16.17;3.80;;;;;;;-149.78;100.00;50455.81;4960116;28;20395;-61
2021/10/30 07:30:26;;;;;;;13.23;3.60;;;;;;;-149.78;100.00;50463.63;4957438;28;20545;-63
2021/10/30 07:32:52;;;;;;;12.38;3.78;;;;;;;-149.78;100.00;50467.53;4957844;28;20039;-61
2021/10/30 07:35:22;;;;;;;17.23;3.75;;;;;;;-149.78;100.00;50475.34;4960857;28;20043;-61
2021/10/30 07:37:49;;;;;;;12.70;3.33;;;;;;;-149.78;100.00;50471.44;4960468;28;20031;-61
2021/10/30 07:40:15;;;;;;;15.43;4.10;;;;;;;-149.78;100.00;50440.16;4963379;28;20054;-65
2021/10/30 07:42:42;;;;;;;13.70;4.07;;;;;;;-149.78;100.00;50459.72;4964128;28;20039;-65
2021/10/30 07:45:09;;;;;;;9.80;3.35;;;;;;;-149.78;100.00;50459.72;4963216;28;20050;-65
2021/10/30 07:47:35;;;;;;;14.68;4.15;;;;;;;-149.78;100.00;50459.72;4961660;28;20070;-65
2021/10/30 07:50:02;;;;;;;10.40;3.38;;;;;;;-149.78;100.00;50461.66;4959030;28;20113;-65
2021/10/30 07:52:29;;;;;;;8.70;3.55;;;;;;;-149.78;100.00;50455.81;4960007;28;20035;-64
2021/10/30 07:54:55;;;;;;;14.25;3.67;;;;;;;-149.78;100.00;50438.19;4956203;28;20430;-64
2021/10/30 07:57:21;;;;;;;12.95;3.67;;;;;;;-149.78;100.00;50404.94;4959639;28;20031;-64
2021/10/30 07:59:50;;;;;;;12.68;3.60;;;;;;;-149.78;100.00;50473.41;4964367;28;20042;-64
2021/10/30 08:02:18;;;;;;;10.45;3.25;;;;;;;-149.78;100.00;50506.66;4959297;28;20058;-64
2021/10/30 08:04:45;;;;;;;12.48;3.70;;;;;;;-149.78;100.00;50469.50;4955899;28;20043;-66
2021/10/30 08:07:11;;;;;;;14.90;3.70;;;;;;;-149.78;100.00;50447.97;4958071;28;20043;-66
2021/10/30 08:09:36;;;;;;;8.73;3.60;;;;;;;-149.78;100.00;50463.63;4959974;28;20509;-65
2021/10/30 08:12:03;;;;;;;7.63;3.50;;;;;;;-149.78;100.00;50489.03;4958387;28;20115;-65
2021/10/30 08:14:28;;;;;;;6.68;2.10;;;;;;;-149.78;100.00;50514.47;4965655;28;20046;-66
2021/10/30 08:16:54;;;;;;;7.25;2.55;;;;;;;-149.78;100.00;50467.53;4962072;28;20066;-66
2021/10/30 08:19:20;;;;;;;3.75;1.25;;;;;;;-149.78;100.00;50467.53;4958157;28;20043;-65
2021/10/30 08:21:46;;;;;;;3.90;1.10;;;;;;;-149.78;100.00;50471.44;4957956;28;20039;-65
2021/10/30 08:24:12;;;;;;;1.88;0.82;;;;;;;-149.78;100.00;50487.09;4958703;28;20031;-66
2021/10/30 08:26:38;;;;;;;3.17;0.88;;;;;;;-149.78;100.00;50510.56;4966559;28;20081;-65
2021/10/30 08:29:03;;;;;;;1.70;0.90;;;;;;;-149.78;100.00;50479.28;4963814;28;20463;-66
2021/10/30 08:31:30;;;;;;;2.92;0.75;;;;;;;-149.78;100.00;50502.75;4967629;28;20367;-67
2021/10/30 08:33:57;;;;;;;1.35;0.60;;;;;;;-149.78;100.00;50489.03;4960393;28;20055;-67
2021/10/30 08:36:24;;;;;;;1.25;0.63;;;;;;;-149.78;100.00;50457.75;4968369;28;20043;-65
2021/10/30 08:38:50;;;;;;;1.35;0.80;;;;;;;-149.78;100.00;50449.94;4965882;28;20050;-67
2021/10/30 08:41:15;;;;;;;3.45;0.90;;;;;;;-149.78;100.00;50463.63;4977329;28;20034;-66
2021/10/30 08:43:41;;;;;;;1.58;0.60;;;;;;;-149.78;100.00;50485.13;4973481;28;20031;-67
2021/10/30 08:46:07;;;;;;;1.20;0.90;;;;;;;-149.78;100.00;50500.78;4970724;28;20158;-67
2021/10/30 08:48:33;;;;;;;1.38;0.80;;;;;;;-149.78;100.00;50483.19;4973913;28;20090;-67
2021/10/30 08:51:04;;;;;;;3.78;1.00;;;;;;;-149.78;100.00;50506.66;4966169;28;20034;-67
2021/10/30 08:53:30;;;;;;;2.30;0.93;;;;;;;-149.78;100.00;50502.75;4966540;28;20082;-68
2021/10/30 08:55:58;;;;;;;1.08;0.90;;;;;;;-149.78;100.00;50459.72;4961276;28;20489;-67
2021/10/30 08:58:27;;;;;;;1.40;0.77;;;;;;;-149.78;100.00;50502.75;4961399;28;20035;-66
2021/10/30 09:00:59;;;;;;;3.97;0.93;;;;;;;-149.78;100.00;50463.63;4963015;28;20061;-66
2021/10/30 09:03:25;;;;;;;3.00;0.88;;;;;;;-149.78;100.00;50494.91;4959395;28;20062;-66
2021/10/30 09:05:55;;;;;;;1.58;0.90;;;;;;;-149.78;100.00;50444.06;4966139;28;20133;-67
2021/10/30 09:08:27;;;;;;;3.45;0.85;;;;;;;-149.78;100.00;50477.31;4959062;28;20113;-66
2021/10/30 09:11:01;;;;;;;0.98;0.70;;;;;;;-149.78;100.00;50455.81;4962276;28;20034;-66
2021/10/30 09:13:29;;;;;;;1.83;0.88;;;;;;;-149.78;100.00;50487.09;4959425;28;20039;-66
2021/10/30 09:15:56;;;;;;;2.75;0.95;;;;;;;-149.78;100.00;50506.66;4962326;28;20039;-63
2021/10/30 09:18:29;;;;;;;2.55;1.30;;;;;;;-149.78;100.00;50483.19;4974220;28;20042;-63
2021/10/30 09:21:19;;;;;;;2.80;1.10;;;;;;;-149.78;100.00;50506.66;4968659;28;20042;-63
2021/10/30 09:23:47;;;;;;;2.35;0.90;;;;;;;-149.78;100.00;50524.25;4974717;28;20039;-63
2021/10/30 09:26:22;;;;;;;5.40;0.88;;;;;;;-149.78;100.00;50491.00;4958664;28;20118;-63
2021/10/30 09:28:54;;;;;;;2.75;0.80;;;;;;;-149.78;100.00;50457.75;4963122;28;20470;-63
2021/10/30 09:31:22;;;;;;;7.03;1.00;;;;;;;-149.78;100.00;50440.16;4965202;28;20023;-63
2021/10/30 09:33:56;;;;;;;3.25;1.08;;;;;;;-149.78;100.00;50451.88;4966413;28;20050;-63
2021/10/30 09:36:23;;;;;;;1.73;1.00;;;;;;;-149.78;100.00;50483.19;4973668;28;20071;-63
2021/10/30 09:38:54;;;;;;;1.77;0.85;;;;;;;-149.78;100.00;50510.56;4970211;28;20099;-63
2021/10/30 09:41:20;;;;;;;2.10;1.05;;;;;;;-149.78;100.00;50498.81;4966349;28;20031;-62
2021/10/30 09:43:59;;;;;;;1.23;0.80;;;;;;;-149.78;100.00;50487.09;4966078;28;20478;-62
2021/10/30 09:46:27;;;;;;;1.92;0.95;;;;;;;-149.78;100.00;50479.28;4968146;28;20118;-63
2021/10/30 09:48:54;;;;;;;1.77;0.90;;;;;;;-149.78;100.00;50492.97;4975174;28;20062;-62
2021/10/30 09:51:50;;;;;;;1.20;0.85;;;;;;;-149.78;100.00;50483.19;4967803;28;20043;-63
2021/10/30 09:54:36;;;;;;;1.38;0.80;;;;;;;-149.78;100.00;50483.19;4967220;28;20039;-63
2021/10/30 09:57:03;;;;;;;2.97;0.73;;;;;;;-149.78;100.00;50522.28;4968072;28;20113;-63
2021/10/30 09:59:33;;;;;;;1.08;0.70;;;;;;;-149.78;100.00;50471.44;4972627;28;20053;-63
2021/10/30 10:02:00;;;;;;;3.70;1.00;;;;;;;-149.78;100.00;50475.34;4968335;28;20042;-63
2021/10/30 10:04:27;;;;;;;4.03;1.05;;;;;;;-149.78;100.00;50485.13;4964896;28;20142;-63
2021/10/30 10:06:55;;;;;;;2.72;1.52;;;;;;;-149.78;100.00;50463.63;4964719;28;20071;-63
2021/10/30 10:09:21;;;;;;;4.78;2.20;;;;;;;-149.78;100.00;50506.66;4961727;28;20034;-63
2021/10/30 10:11:48;;;;;;;3.72;2.30;;;;;;;-149.78;100.00;50494.91;4963679;28;20615;-63
2021/10/30 10:14:19;;;;;;;3.95;2.20;;;;;;;-149.78;100.00;50491.00;4957149;28;20059;-64
2021/10/30 10:16:54;;;;;;;8.77;2.00;;;;;;;-149.78;100.00;50459.72;4969402;28;20077;-63
2021/10/30 10:19:21;;;;;;;2.53;1.60;;;;;;;-149.78;100.00;50491.00;4964070;28;20463;-64
2021/10/30 10:21:53;;;;;;;2.78;1.58;;;;;;;-149.78;100.00;50463.63;4965977;28;20046;-63
2021/10/30 10:24:26;;;;;;;2.72;1.23;;;;;;;-149.78;100.00;50483.19;4972208;28;20070;-66
2021/10/30 10:26:53;;;;;;;2.60;1.40;;;;;;;-149.78;100.00;50467.53;4974718;28;20126;-62
2021/10/30 10:29:36;;;;;;;2.40;1.35;;;;;;;-149.78;100.00;50467.53;4972849;28;20482;-63
2021/10/30 10:32:18;;;;;;;2.22;1.33;;;;;;;-149.78;100.00;50479.28;4972993;28;20031;-64
2021/10/30 10:34:46;;;;;;;3.53;1.95;;;;;;;-149.78;100.00;50481.22;4967245;28;20574;-63
2021/10/30 10:37:11;;;;;;;4.53;1.20;;;;;;;-149.78;100.00;50483.19;4968773;28;20161;-63
2021/10/30 10:39:44;;;;;;;4.82;1.48;;;;;;;-149.78;100.00;50457.75;4960848;28;20489;-64
2021/10/30 10:42:36;;;;;;;1.65;1.33;;;;;;;-149.78;100.00;50446.03;4964111;28;20027;-64
2021/10/30 10:45:02;;;;;;;1.02;0.90;;;;;;;-149.78;100.00;50436.25;4968387;28;20129;-63
2021/10/30 10:47:35;;;;;;;1.00;0.90;;;;;;;-149.78;100.00;50432.31;4962709;28;20036;-63
2021/10/30 10:50:18;;;;;;;1.05;0.90;;;;;;;-149.78;100.00;50432.31;4956381;28;20066;-64
2021/10/30 10:53:03;;;;;;;1.10;0.73;;;;;;;-149.78;100.00;50408.84;4973243;28;20073;-64
2021/10/30 10:55:31;;;;;;;0.60;0.60;;;;;;;-149.78;100.00;50416.69;4963114;28;20058;-64
2021/10/30 10:58:01;;;;;;;0.73;0.57;;;;;;;-149.78;100.00;50444.06;4959812;28;20497;-64
2021/10/30 11:00:29;;;;;;;1.70;0.50;;;;;;;-149.78;100.00;50389.31;4964255;28;20081;-64
2021/10/30 11:02:55;;;;;;;0.35;0.35;;;;;;;-149.78;100.00;50436.25;4962020;28;20031;-64
2021/10/30 11:05:21;;;;;;;1.55;0.30;;;;;;;-149.78;100.00;50426.47;4967659;28;20032;-60